Time,TemperatureF,DewpointF,PressureIn,WindDirection,WindDirectionDegrees,WindSpeedMPH,WindSpeedGustMPH,Humidity,HourlyPrecipIn,Conditions,Clouds,dailyrainin,SoftwareType,DateUTC
2013-09-22 00:04:00,64.2,62.4,29.74,N/A,-737280,0.0,0.0,94,0.00,,,0.01,Wunderground v.1.12,2013-09-22 04:04:00,
2013-09-22 00:09:00,64.2,62.4,29.74,N/A,-737280,0.0,0.0,94,0.00,,,0.01,Wunderground v.1.12,2013-09-22 04:09:00,
2013-09-22 00:13:00,64.0,62.2,29.74,NW,312,0.0,-999.0,94,0.00,,,0.00,Wunderground v.1.12,2013-09-22 04:13:00,
2013-09-22 00:14:00,64.2,62.4,29.74,N/A,-737280,0.0,0.0,94,0.00,,,0.01,Wunderground v.1.12,2013-09-22 04:14:00,
2013-09-22 00:19:00,64.0,62.2,29.74,N/A,-737280,0.0,0.0,94,0.00,,,0.01,Wunderground v.1.12,2013-09-22 04:19:00,
2013-09-22 00:24:00,63.9,62.1,29.74,NW,312,0.0,-999.0,94,0.00,,,0.00,Wunderground v.1.12,2013-09-22 04:24:00,
2013-09-22 00:29:00,63.9,62.1,29.74,N/A,-737280,0.0,0.0,94,0.00,,,0.01,Wunderground v.1.12,2013-09-22 04:29:00,
2013-09-22 00:34:00,63.9,62.1,29.74,NW,312,0.0,-999.0,94,0.00,,,0.00,Wunderground v.1.12,2013-09-22 04:34:00,
2013-09-22 00:39:00,63.9,62.1,29.74,N/A,-737280,0.0,0.0,94,0.00,,,0.01,Wunderground v.1.12,2013-09-22 04:39:00,
2013-09-22 00:44:00,63.7,61.9,29.74,N/A,-737280,0.0,0.0,94,0.00,,,0.01,Wunderground v.1.12,2013-09-22 04:44:00,
2013-09-22 00:49:00,63.5,61.7,29.74,NW,312,0.0,-999.0,94,0.00,,,0.00,Wunderground v.1.12,2013-09-22 04:49:00,
2013-09-22 00:54:00,63.5,61.7,29.74,N/A,-737280,0.0,0.0,94,0.00,,,0.01,Wunderground v.1.12,2013-09-22 04:54:00,
2013-09-22 00:56:00,63.4,61.6,29.74,NW,312,0.0,-999.0,94,0.00,,,0.00,Wunderground v.1.12,2013-09-22 04:56:00,
2013-09-22 00:59:00,63.5,61.7,29.74,N/A,-737280,0.0,0.0,94,0.00,,,0.01,Wunderground v.1.12,2013-09-22 04:59:00,
2013-09-22 01:02:00,63.4,61.6,29.74,NW,312,0.0,-999.0,94,0.00,,,0.00,Wunderground v.1.12,2013-09-22 05:02:00,
2013-09-22 01:04:00,63.4,61.6,29.74,N/A,-737280,0.0,0.0,94,0.00,,,0.01,Wunderground v.1.12,2013-09-22 05:04:00,
2013-09-22 01:09:00,63.3,61.5,29.74,N/A,-737280,0.0,0.0,94,0.00,,,0.01,Wunderground v.1.12,2013-09-22 05:09:00,
2013-09-22 01:12:00,63.1,61.3,29.74,NW,312,0.0,-999.0,94,0.00,,,0.01,Wunderground v.1.12,2013-09-22 05:12:00,
2013-09-22 01:14:00,63.2,61.4,29.74,N/A,-737280,0.0,0.0,94,0.01,,,0.01,Wunderground v.1.12,2013-09-22 05:14:00,
2013-09-22 01:19:00,63.1,61.3,29.74,N/A,-737280,0.0,0.0,94,0.01,,,0.01,Wunderground v.1.12,2013-09-22 05:19:00,
2013-09-22 01:20:00,62.9,61.1,29.74,NW,312,0.0,-999.0,94,0.00,,,0.01,Wunderground v.1.12,2013-09-22 05:20:00,
2013-09-22 01:24:00,63.1,61.3,29.74,N/A,-737280,0.0,0.0,94,0.01,,,0.01,Wunderground v.1.12,2013-09-22 05:24:00,
2013-09-22 01:29:00,62.9,61.1,29.74,N/A,-737280,0.0,0.0,94,0.01,,,0.01,Wunderground v.1.12,2013-09-22 05:29:00,
2013-09-22 01:34:00,62.7,60.9,29.74,NW,312,0.0,-999.0,94,0.00,,,0.01,Wunderground v.1.12,2013-09-22 05:34:00,
2013-09-22 01:39:00,62.6,60.8,29.74,NW,312,0.0,-999.0,94,0.00,,,0.01,Wunderground v.1.12,2013-09-22 05:39:00,
2013-09-22 01:44:00,62.7,60.9,29.74,N/A,-737280,0.0,0.0,94,0.01,,,0.01,Wunderground v.1.12,2013-09-22 05:44:00,
2013-09-22 01:47:00,62.4,60.7,29.74,NW,312,0.0,-999.0,94,0.00,,,0.01,Wunderground v.1.12,2013-09-22 05:47:00,
2013-09-22 01:49:00,62.6,60.8,29.74,N/A,-737280,0.0,0.0,94,0.01,,,0.01,Wunderground v.1.12,2013-09-22 05:49:00,
2013-09-22 01:54:00,62.4,60.7,29.74,N/A,-737280,0.0,0.0,94,0.01,,,0.01,Wunderground v.1.12,2013-09-22 05:54:00,
2013-09-22 01:59:00,62.1,60.4,29.75,NW,312,0.0,-999.0,94,0.00,,,0.01,Wunderground v.1.12,2013-09-22 05:59:00,
2013-09-22 02:04:00,62.2,60.5,29.75,N/A,-737280,0.0,0.0,94,0.01,,,0.01,Wunderground v.1.12,2013-09-22 06:04:00,
2013-09-22 02:08:00,62.0,60.3,29.75,NW,312,0.0,-999.0,94,0.00,,,0.01,Wunderground v.1.12,2013-09-22 06:08:00,
2013-09-22 02:09:00,62.1,60.4,29.75,N/A,-737280,0.0,0.0,94,0.01,,,0.01,Wunderground v.1.12,2013-09-22 06:09:00,
2013-09-22 02:12:00,61.8,60.1,29.75,NW,312,0.0,-999.0,94,0.00,,,0.01,Wunderground v.1.12,2013-09-22 06:12:00,
2013-09-22 02:14:00,62.0,60.3,29.75,N/A,-737280,0.0,0.0,94,0.00,,,0.01,Wunderground v.1.12,2013-09-22 06:14:00,
2013-09-22 02:19:00,61.9,60.2,29.75,N/A,-737280,0.0,0.0,94,0.00,,,0.01,Wunderground v.1.12,2013-09-22 06:19:00,
2013-09-22 02:21:00,61.6,59.9,29.75,NW,312,0.0,-999.0,94,0.00,,,0.01,Wunderground v.1.12,2013-09-22 06:21:00,
2013-09-22 02:24:00,61.8,60.1,29.75,N/A,-737280,0.0,0.0,94,0.00,,,0.01,Wunderground v.1.12,2013-09-22 06:24:00,
2013-09-22 02:29:00,61.7,59.7,29.75,N/A,-737280,0.0,0.0,93,0.00,,,0.01,Wunderground v.1.12,2013-09-22 06:29:00,
2013-09-22 02:30:00,61.5,59.5,29.75,NW,312,0.0,-999.0,93,0.00,,,0.01,Wunderground v.1.12,2013-09-22 06:30:00,
2013-09-22 02:34:00,61.6,59.6,29.75,N/A,-737280,0.0,0.0,93,0.00,,,0.01,Wunderground v.1.12,2013-09-22 06:34:00,
2013-09-22 02:37:00,61.3,59.6,29.75,NW,312,0.0,-999.0,94,0.00,,,0.01,Wunderground v.1.12,2013-09-22 06:37:00,
2013-09-22 02:39:00,61.5,59.8,29.75,N/A,-737280,0.0,0.0,94,0.00,,,0.01,Wunderground v.1.12,2013-09-22 06:39:00,
2013-09-22 02:44:00,61.4,59.7,29.75,N/A,-737280,0.0,0.0,94,0.00,,,0.01,Wunderground v.1.12,2013-09-22 06:44:00,
2013-09-22 02:49:00,61.3,59.6,29.75,N/A,-737280,0.0,0.0,94,0.00,,,0.01,Wunderground v.1.12,2013-09-22 06:49:00,
2013-09-22 02:54:00,61.3,59.6,29.75,N/A,-737280,0.0,0.0,94,0.00,,,0.01,Wunderground v.1.12,2013-09-22 06:54:00,
2013-09-22 02:59:00,61.2,59.5,29.75,N/A,-737280,0.0,0.0,94,0.00,,,0.01,Wunderground v.1.12,2013-09-22 06:59:00,
2013-09-22 03:01:00,61.0,59.3,29.75,NW,312,0.0,-999.0,94,0.00,,,0.01,Wunderground v.1.12,2013-09-22 07:01:00,
2013-09-22 03:04:00,61.2,59.5,29.75,N/A,-737280,0.0,0.0,94,0.00,,,0.01,Wunderground v.1.12,2013-09-22 07:04:00,
2013-09-22 03:08:00,61.0,59.3,29.75,NW,312,0.0,-999.0,94,0.00,,,0.01,Wunderground v.1.12,2013-09-22 07:08:00,
2013-09-22 03:09:00,61.0,59.3,29.75,N/A,-737280,0.0,0.0,94,0.00,,,0.01,Wunderground v.1.12,2013-09-22 07:09:00,
2013-09-22 03:13:00,60.9,59.2,29.75,NW,312,0.0,-999.0,94,0.00,,,0.01,Wunderground v.1.12,2013-09-22 07:13:00,
2013-09-22 03:14:00,61.0,59.3,29.75,N/A,-737280,0.0,0.0,94,0.00,,,0.01,Wunderground v.1.12,2013-09-22 07:14:00,
2013-09-22 03:19:00,60.7,59.0,29.75,NW,312,0.0,-999.0,94,0.00,,,0.01,Wunderground v.1.12,2013-09-22 07:19:00,
2013-09-22 03:24:00,60.8,59.1,29.75,N/A,-737280,0.0,0.0,94,0.00,,,0.01,Wunderground v.1.12,2013-09-22 07:24:00,
2013-09-22 03:25:00,60.7,59.0,29.74,NW,312,0.0,-999.0,94,0.00,,,0.01,Wunderground v.1.12,2013-09-22 07:25:00,
2013-09-22 03:29:00,60.7,59.0,29.74,N/A,-737280,0.0,0.0,94,0.00,,,0.01,Wunderground v.1.12,2013-09-22 07:29:00,
2013-09-22 03:33:00,60.5,58.8,29.74,NW,312,0.0,-999.0,94,0.00,,,0.01,Wunderground v.1.12,2013-09-22 07:33:00,
2013-09-22 03:34:00,60.6,58.9,29.74,N/A,-737280,0.0,0.0,94,0.00,,,0.01,Wunderground v.1.12,2013-09-22 07:34:00,
2013-09-22 03:38:00,60.5,58.8,29.74,NW,312,0.0,-999.0,94,0.00,,,0.01,Wunderground v.1.12,2013-09-22 07:38:00,
2013-09-22 03:39:00,60.5,58.8,29.74,N/A,-737280,0.0,0.0,94,0.00,,,0.01,Wunderground v.1.12,2013-09-22 07:39:00,
2013-09-22 03:44:00,60.5,58.8,29.74,N/A,-737280,0.0,0.0,94,0.00,,,0.01,Wunderground v.1.12,2013-09-22 07:44:00,
2013-09-22 03:49:00,60.4,58.7,29.74,N/A,-737280,0.0,0.0,94,0.00,,,0.01,Wunderground v.1.12,2013-09-22 07:49:00,
2013-09-22 03:54:00,60.4,58.7,29.74,N/A,-737280,0.0,0.0,94,0.00,,,0.01,Wunderground v.1.12,2013-09-22 07:54:00,
2013-09-22 03:56:00,60.2,58.5,29.74,NW,312,0.0,-999.0,94,0.00,,,0.01,Wunderground v.1.12,2013-09-22 07:56:00,
2013-09-22 03:59:00,60.4,58.7,29.74,N/A,-737280,0.0,0.0,94,0.00,,,0.01,Wunderground v.1.12,2013-09-22 07:59:00,
2013-09-22 04:04:00,60.2,58.5,29.74,N/A,-737280,0.0,0.0,94,0.00,,,0.01,Wunderground v.1.12,2013-09-22 08:04:00,
2013-09-22 04:05:00,60.2,58.5,29.74,NW,312,0.0,-999.0,94,0.00,,,0.01,Wunderground v.1.12,2013-09-22 08:05:00,
2013-09-22 04:09:00,60.2,58.5,29.74,N/A,-737280,0.0,0.0,94,0.00,,,0.01,Wunderground v.1.12,2013-09-22 08:09:00,
2013-09-22 04:12:00,60.1,58.4,29.74,NW,312,0.0,-999.0,94,0.00,,,0.01,Wunderground v.1.12,2013-09-22 08:12:00,
2013-09-22 04:14:00,60.2,58.5,29.74,N/A,-737280,0.0,0.0,94,0.00,,,0.01,Wunderground v.1.12,2013-09-22 08:14:00,
2013-09-22 04:19:00,60.1,58.4,29.74,N/A,-737280,0.0,0.0,94,0.00,,,0.01,Wunderground v.1.12,2013-09-22 08:19:00,
2013-09-22 04:21:00,60.1,58.4,29.74,NW,312,0.0,-999.0,94,0.00,,,0.01,Wunderground v.1.12,2013-09-22 08:21:00,
2013-09-22 04:24:00,60.1,58.4,29.74,N/A,-737280,0.0,0.0,94,0.00,,,0.01,Wunderground v.1.12,2013-09-22 08:24:00,
2013-09-22 04:26:00,59.9,58.2,29.74,NW,312,0.0,-999.0,94,0.00,,,0.01,Wunderground v.1.12,2013-09-22 08:26:00,
2013-09-22 04:29:00,60.1,58.4,29.74,N/A,-737280,0.0,0.0,94,0.00,,,0.01,Wunderground v.1.12,2013-09-22 08:29:00,
2013-09-22 04:32:00,59.9,58.2,29.74,NW,312,0.0,-999.0,94,0.00,,,0.01,Wunderground v.1.12,2013-09-22 08:32:00,
2013-09-22 04:34:00,59.9,58.2,29.74,N/A,-737280,0.0,0.0,94,0.00,,,0.01,Wunderground v.1.12,2013-09-22 08:34:00,
2013-09-22 04:39:00,59.9,58.2,29.74,N/A,-737280,0.0,0.0,94,0.00,,,0.01,Wunderground v.1.12,2013-09-22 08:39:00,
2013-09-22 04:44:00,59.9,58.2,29.75,N/A,-737280,0.0,0.0,94,0.00,,,0.01,Wunderground v.1.12,2013-09-22 08:44:00,
2013-09-22 04:49:00,59.9,58.2,29.75,N/A,-737280,0.0,0.0,94,0.00,,,0.01,Wunderground v.1.12,2013-09-22 08:49:00,
2013-09-22 04:54:00,59.8,58.1,29.74,NW,312,0.0,-999.0,94,0.00,,,0.01,Wunderground v.1.12,2013-09-22 08:54:00,
2013-09-22 04:59:00,59.6,57.9,29.74,NW,312,0.0,-999.0,94,0.00,,,0.01,Wunderground v.1.12,2013-09-22 08:59:00,
2013-09-22 05:04:00,59.6,57.9,29.74,N/A,-737280,0.0,0.0,94,0.00,,,0.01,Wunderground v.1.12,2013-09-22 09:04:00,
2013-09-22 05:09:00,59.6,57.9,29.74,N/A,-737280,0.0,0.0,94,0.00,,,0.01,Wunderground v.1.12,2013-09-22 09:09:00,
2013-09-22 05:14:00,59.5,57.8,29.75,N/A,-737280,0.0,0.0,94,0.00,,,0.01,Wunderground v.1.12,2013-09-22 09:14:00,
2013-09-22 05:19:00,59.3,57.6,29.75,N/A,-737280,0.0,0.0,94,0.00,,,0.01,Wunderground v.1.12,2013-09-22 09:19:00,
2013-09-22 05:24:00,59.3,57.6,29.75,N/A,-737280,0.0,0.0,94,0.00,,,0.01,Wunderground v.1.12,2013-09-22 09:24:00,
2013-09-22 05:29:00,59.2,57.5,29.75,N/A,-737280,0.0,0.0,94,0.00,,,0.01,Wunderground v.1.12,2013-09-22 09:29:00,
2013-09-22 05:34:00,59.1,57.4,29.75,N/A,-737280,0.0,0.0,94,0.00,,,0.01,Wunderground v.1.12,2013-09-22 09:34:00,
2013-09-22 05:38:00,58.9,57.2,29.75,NW,312,0.0,-999.0,94,0.00,,,0.01,Wunderground v.1.12,2013-09-22 09:38:00,
2013-09-22 05:39:00,59.0,57.3,29.75,N/A,-737280,0.0,0.0,94,0.00,,,0.01,Wunderground v.1.12,2013-09-22 09:39:00,
2013-09-22 05:44:00,58.7,57.0,29.75,NW,312,0.0,-999.0,94,0.00,,,0.01,Wunderground v.1.12,2013-09-22 09:44:00,
2013-09-22 05:49:00,58.8,57.1,29.75,N/A,-737280,0.0,0.0,94,0.00,,,0.01,Wunderground v.1.12,2013-09-22 09:49:00,
2013-09-22 05:50:00,58.7,57.0,29.75,NW,312,0.0,-999.0,94,0.00,,,0.01,Wunderground v.1.12,2013-09-22 09:50:00,
2013-09-22 05:54:00,58.7,57.0,29.75,N/A,-737280,0.0,0.0,94,0.00,,,0.01,Wunderground v.1.12,2013-09-22 09:54:00,
2013-09-22 05:59:00,58.6,56.9,29.76,N/A,-737280,0.0,0.0,94,0.00,,,0.01,Wunderground v.1.12,2013-09-22 09:59:00,
2013-09-22 06:04:00,58.6,56.9,29.76,N/A,-737280,0.0,0.0,94,0.00,,,0.01,Wunderground v.1.12,2013-09-22 10:04:00,
2013-09-22 06:09:00,58.6,56.9,29.76,N/A,-737280,0.0,0.0,94,0.00,,,0.01,Wunderground v.1.12,2013-09-22 10:09:00,
2013-09-22 06:11:00,58.4,56.7,29.76,NW,312,0.0,-999.0,94,0.00,,,0.01,Wunderground v.1.12,2013-09-22 10:11:00,
2013-09-22 06:14:00,58.5,56.8,29.76,N/A,-737280,0.0,0.0,94,0.00,,,0.01,Wunderground v.1.12,2013-09-22 10:14:00,
2013-09-22 06:19:00,58.4,56.7,29.76,N/A,-737280,0.0,0.0,94,0.00,,,0.01,Wunderground v.1.12,2013-09-22 10:19:00,
2013-09-22 06:23:00,58.3,56.6,29.76,NW,312,0.0,-999.0,94,0.00,,,0.01,Wunderground v.1.12,2013-09-22 10:23:00,
2013-09-22 06:24:00,58.4,56.7,29.76,N/A,-737280,0.0,0.0,94,0.00,,,0.01,Wunderground v.1.12,2013-09-22 10:24:00,
2013-09-22 06:29:00,58.3,56.6,29.76,N/A,-737280,0.0,0.0,94,0.00,,,0.01,Wunderground v.1.12,2013-09-22 10:29:00,
2013-09-22 06:32:00,58.3,56.6,29.76,NW,312,0.0,-999.0,94,0.00,,,0.01,Wunderground v.1.12,2013-09-22 10:32:00,
2013-09-22 06:34:00,58.3,56.6,29.76,N/A,-737280,0.0,0.0,94,0.00,,,0.01,Wunderground v.1.12,2013-09-22 10:34:00,
2013-09-22 06:38:00,58.1,56.4,29.76,NW,312,0.0,-999.0,94,0.00,,,0.01,Wunderground v.1.12,2013-09-22 10:38:00,
2013-09-22 06:39:00,58.3,56.6,29.76,N/A,-737280,0.0,0.0,94,0.00,,,0.01,Wunderground v.1.12,2013-09-22 10:39:00,
2013-09-22 06:44:00,58.1,56.4,29.76,N/A,-737280,0.0,0.0,94,0.00,,,0.01,Wunderground v.1.12,2013-09-22 10:44:00,
2013-09-22 06:46:00,58.1,56.4,29.76,NW,312,0.0,-999.0,94,0.00,,,0.01,Wunderground v.1.12,2013-09-22 10:46:00,
2013-09-22 06:49:00,58.1,56.4,29.76,N/A,-737280,0.0,0.0,94,0.00,,,0.01,Wunderground v.1.12,2013-09-22 10:49:00,
2013-09-22 06:54:00,58.0,56.3,29.76,N/A,-737280,0.0,0.0,94,0.00,,,0.01,Wunderground v.1.12,2013-09-22 10:54:00,
2013-09-22 06:57:00,58.0,56.3,29.77,NW,312,0.0,-999.0,94,0.00,,,0.01,Wunderground v.1.12,2013-09-22 10:57:00,
2013-09-22 06:59:00,58.0,56.3,29.77,N/A,-737280,0.0,0.0,94,0.00,,,0.01,Wunderground v.1.12,2013-09-22 10:59:00,
2013-09-22 07:04:00,57.9,56.2,29.77,N/A,-737280,0.0,0.0,94,0.00,,,0.01,Wunderground v.1.12,2013-09-22 11:04:00,
2013-09-22 07:09:00,57.8,56.1,29.77,NW,312,0.0,-999.0,94,0.00,,,0.01,Wunderground v.1.12,2013-09-22 11:09:00,
2013-09-22 07:14:00,57.8,56.1,29.77,N/A,-737280,0.0,0.0,94,0.00,,,0.01,Wunderground v.1.12,2013-09-22 11:14:00,
2013-09-22 07:15:00,58.0,56.3,29.77,NW,312,0.0,-999.0,94,0.00,,,0.01,Wunderground v.1.12,2013-09-22 11:15:00,
2013-09-22 07:19:00,57.8,56.1,29.77,N/A,-737280,0.0,0.0,94,0.00,,,0.01,Wunderground v.1.12,2013-09-22 11:19:00,
2013-09-22 07:24:00,58.1,56.4,29.78,NW,312,0.0,-999.0,94,0.00,,,0.01,Wunderground v.1.12,2013-09-22 11:24:00,
2013-09-22 07:29:00,58.1,56.4,29.78,N/A,-737280,0.0,0.0,94,0.00,,,0.01,Wunderground v.1.12,2013-09-22 11:29:00,
2013-09-22 07:30:00,58.1,56.4,29.78,NW,312,0.0,-999.0,94,0.00,,,0.01,Wunderground v.1.12,2013-09-22 11:30:00,
2013-09-22 07:34:00,58.1,56.4,29.78,N/A,-737280,0.0,0.0,94,0.00,,,0.01,Wunderground v.1.12,2013-09-22 11:34:00,
2013-09-22 07:36:00,58.1,56.7,29.78,NW,312,0.0,-999.0,95,0.00,,,0.01,Wunderground v.1.12,2013-09-22 11:36:00,
2013-09-22 07:39:00,58.1,56.4,29.78,N/A,-737280,0.0,0.0,94,0.00,,,0.01,Wunderground v.1.12,2013-09-22 11:39:00,
2013-09-22 07:42:00,58.3,56.9,29.78,NW,312,0.0,-999.0,95,0.00,,,0.01,Wunderground v.1.12,2013-09-22 11:42:00,
2013-09-22 07:49:00,58.3,56.9,29.78,NW,312,0.0,-999.0,95,0.00,,,0.01,Wunderground v.1.12,2013-09-22 11:49:00,
2013-09-22 07:54:00,58.3,56.9,29.78,N/A,-737280,0.0,0.0,95,0.00,,,0.01,Wunderground v.1.12,2013-09-22 11:54:00,
2013-09-22 07:59:00,58.4,57.0,29.78,N/A,-737280,0.0,0.0,95,0.00,,,0.01,Wunderground v.1.12,2013-09-22 11:59:00,
2013-09-22 08:02:00,58.4,57.3,29.78,NW,312,0.0,-999.0,96,0.00,,,0.01,Wunderground v.1.12,2013-09-22 12:02:00,
2013-09-22 08:04:00,58.4,57.3,29.78,N/A,-737280,0.0,0.0,96,0.00,,,0.01,Wunderground v.1.12,2013-09-22 12:04:00,
2013-09-22 08:09:00,58.4,57.0,29.78,N/A,-737280,0.0,0.0,95,0.00,,,0.01,Wunderground v.1.12,2013-09-22 12:09:00,
2013-09-22 08:14:00,58.4,57.0,29.78,N/A,-737280,0.0,0.0,95,0.00,,,0.01,Wunderground v.1.12,2013-09-22 12:14:00,
2013-09-22 08:17:00,58.4,57.0,29.79,NW,312,0.0,-999.0,95,0.00,,,0.01,Wunderground v.1.12,2013-09-22 12:17:00,
2013-09-22 08:19:00,58.4,57.0,29.78,N/A,-737280,0.0,0.0,95,0.00,,,0.01,Wunderground v.1.12,2013-09-22 12:19:00,
2013-09-22 08:24:00,58.4,57.0,29.78,N/A,-737280,0.0,0.0,95,0.00,,,0.01,Wunderground v.1.12,2013-09-22 12:24:00,
2013-09-22 08:25:00,58.4,57.0,29.79,NW,312,0.0,-999.0,95,0.00,,,0.01,Wunderground v.1.12,2013-09-22 12:25:00,
2013-09-22 08:29:00,58.4,57.0,29.79,N/A,-737280,0.0,0.0,95,0.00,,,0.01,Wunderground v.1.12,2013-09-22 12:29:00,
2013-09-22 08:33:00,58.6,57.2,29.79,NW,312,0.0,-999.0,95,0.00,,,0.01,Wunderground v.1.12,2013-09-22 12:33:00,
2013-09-22 08:34:00,58.5,57.1,29.79,N/A,-737280,0.0,0.0,95,0.00,,,0.01,Wunderground v.1.12,2013-09-22 12:34:00,
2013-09-22 08:39:00,58.6,57.2,29.79,N/A,-737280,0.0,0.0,95,0.00,,,0.01,Wunderground v.1.12,2013-09-22 12:39:00,
2013-09-22 08:44:00,58.7,57.3,29.80,N/A,-737280,0.0,0.0,95,0.00,,,0.01,Wunderground v.1.12,2013-09-22 12:44:00,
2013-09-22 08:46:00,58.9,57.5,29.80,NW,312,0.0,-999.0,95,0.00,,,0.01,Wunderground v.1.12,2013-09-22 12:46:00,
2013-09-22 08:49:00,58.7,57.3,29.80,N/A,-737280,0.0,0.0,95,0.00,,,0.01,Wunderground v.1.12,2013-09-22 12:49:00,
2013-09-22 08:51:00,59.0,57.6,29.80,NW,312,0.0,-999.0,95,0.00,,,0.01,Wunderground v.1.12,2013-09-22 12:51:00,
2013-09-22 08:54:00,58.9,57.5,29.80,N/A,-737280,0.0,0.0,95,0.00,,,0.01,Wunderground v.1.12,2013-09-22 12:54:00,
2013-09-22 08:56:00,59.2,57.8,29.80,NW,312,0.0,-999.0,95,0.00,,,0.01,Wunderground v.1.12,2013-09-22 12:56:00,
2013-09-22 08:59:00,59.0,57.6,29.80,N/A,-737280,0.0,0.0,95,0.00,,,0.01,Wunderground v.1.12,2013-09-22 12:59:00,
2013-09-22 09:04:00,59.2,57.8,29.80,N/A,-737280,0.0,0.0,95,0.00,,,0.01,Wunderground v.1.12,2013-09-22 13:04:00,
2013-09-22 09:09:00,59.3,57.9,29.80,N/A,-737280,0.0,0.0,95,0.00,,,0.01,Wunderground v.1.12,2013-09-22 13:09:00,
2013-09-22 09:14:00,59.4,58.0,29.80,N/A,-737280,0.0,0.0,95,0.00,,,0.01,Wunderground v.1.12,2013-09-22 13:14:00,
2013-09-22 09:19:00,59.5,58.1,29.80,N/A,-737280,0.0,0.0,95,0.00,,,0.01,Wunderground v.1.12,2013-09-22 13:19:00,
2013-09-22 09:24:00,59.8,58.4,29.80,N/A,-737280,0.0,0.0,95,0.00,,,0.01,Wunderground v.1.12,2013-09-22 13:24:00,
2013-09-22 09:29:00,60.0,58.6,29.80,N/A,-737280,0.0,0.0,95,0.00,,,0.01,Wunderground v.1.12,2013-09-22 13:29:00,
2013-09-22 09:34:00,60.1,58.7,29.80,N/A,-737280,0.0,0.0,95,0.00,,,0.01,Wunderground v.1.12,2013-09-22 13:34:00,
2013-09-22 09:39:00,60.2,58.8,29.80,N/A,-737280,0.0,0.0,95,0.00,,,0.01,Wunderground v.1.12,2013-09-22 13:39:00,
2013-09-22 09:44:00,60.4,59.0,29.81,N/A,-737280,0.0,0.0,95,0.00,,,0.01,Wunderground v.1.12,2013-09-22 13:44:00,
2013-09-22 09:49:00,60.4,59.0,29.81,N/A,-737280,0.0,0.0,95,0.00,,,0.01,Wunderground v.1.12,2013-09-22 13:49:00,
2013-09-22 09:54:00,60.5,59.1,29.81,N/A,-737280,0.0,0.0,95,0.00,,,0.01,Wunderground v.1.12,2013-09-22 13:54:00,
2013-09-22 09:59:00,60.6,59.2,29.81,N/A,-737280,0.0,0.0,95,0.00,,,0.01,Wunderground v.1.12,2013-09-22 13:59:00,
2013-09-22 10:04:00,60.9,59.5,29.81,N/A,-737280,0.0,0.0,95,0.00,,,0.01,Wunderground v.1.12,2013-09-22 14:04:00,
2013-09-22 10:09:00,61.0,59.6,29.81,N/A,-737280,0.0,0.0,95,0.00,,,0.01,Wunderground v.1.12,2013-09-22 14:09:00,
2013-09-22 10:14:00,61.3,59.9,29.81,N/A,-737280,0.0,0.0,95,0.00,,,0.01,Wunderground v.1.12,2013-09-22 14:14:00,
2013-09-22 10:19:00,61.6,60.2,29.81,N/A,-737280,0.0,0.0,95,0.00,,,0.01,Wunderground v.1.12,2013-09-22 14:19:00,
2013-09-22 10:24:00,61.8,60.4,29.81,N/A,-737280,0.0,0.0,95,0.00,,,0.01,Wunderground v.1.12,2013-09-22 14:24:00,
2013-09-22 10:29:00,62.1,60.7,29.81,N/A,-737280,0.0,0.0,95,0.00,,,0.01,Wunderground v.1.12,2013-09-22 14:29:00,
2013-09-22 10:34:00,62.4,60.9,29.81,N/A,-737280,0.0,0.0,95,0.00,,,0.01,Wunderground v.1.12,2013-09-22 14:34:00,
2013-09-22 10:39:00,62.9,61.4,29.81,N/A,-737280,0.0,0.0,95,0.00,,,0.01,Wunderground v.1.12,2013-09-22 14:39:00,
2013-09-22 10:44:00,63.2,61.7,29.81,N/A,-737280,0.0,0.0,95,0.00,,,0.01,Wunderground v.1.12,2013-09-22 14:44:00,
2013-09-22 10:49:00,63.6,62.1,29.81,N/A,-737280,0.0,0.0,95,0.00,,,0.01,Wunderground v.1.12,2013-09-22 14:49:00,
2013-09-22 10:54:00,64.1,62.6,29.81,N/A,-737280,0.0,0.0,95,0.00,,,0.01,Wunderground v.1.12,2013-09-22 14:54:00,
2013-09-22 10:59:00,64.5,63.0,29.81,N/A,-737280,0.0,0.0,95,0.00,,,0.01,Wunderground v.1.12,2013-09-22 14:59:00,
2013-09-22 11:04:00,65.0,63.5,29.81,N/A,-737280,0.0,0.0,95,0.00,,,0.01,Wunderground v.1.12,2013-09-22 15:04:00,
2013-09-22 11:09:00,65.5,64.0,29.81,N/A,-737280,0.0,0.0,95,0.00,,,0.01,Wunderground v.1.12,2013-09-22 15:09:00,
2013-09-22 11:14:00,-999.9,-99.9,29.81,N/A,-737280,0.0,0.0,95,0.00,,,0.01,Wunderground v.1.12,2013-09-22 15:14:00,
2013-09-22 11:19:00,66.4,64.6,29.81,N/A,-737280,0.0,0.0,94,0.00,,,0.01,Wunderground v.1.12,2013-09-22 15:19:00,
2013-09-22 11:24:00,67.1,64.7,29.81,N/A,-737280,0.0,0.0,92,0.00,,,0.01,Wunderground v.1.12,2013-09-22 15:24:00,
2013-09-22 11:29:00,67.7,64.3,29.81,N/A,-737280,0.0,0.0,89,0.00,,,0.01,Wunderground v.1.12,2013-09-22 15:29:00,
2013-09-22 11:34:00,68.3,64.9,29.81,N/A,-737280,0.0,0.0,89,0.00,,,0.01,Wunderground v.1.12,2013-09-22 15:34:00,
2013-09-22 11:39:00,-999.9,-99.9,29.81,N/A,-737280,0.0,0.0,89,0.00,,,0.01,Wunderground v.1.12,2013-09-22 15:39:00,
2013-09-22 11:44:00,-999.9,-99.9,29.80,N/A,-737280,0.0,0.0,89,0.00,,,0.01,Wunderground v.1.12,2013-09-22 15:44:00,
2013-09-22 11:49:00,-999.9,-99.9,29.80,N/A,-737280,0.0,0.0,89,0.00,,,0.01,Wunderground v.1.12,2013-09-22 15:49:00,
2013-09-22 11:54:00,71.2,63.6,29.80,N/A,-737280,0.0,0.0,77,0.00,,,0.01,Wunderground v.1.12,2013-09-22 15:54:00,
2013-09-22 11:59:00,71.9,63.9,29.80,N/A,-737280,0.0,0.0,76,0.00,,,0.01,Wunderground v.1.12,2013-09-22 15:59:00,
2013-09-22 12:04:00,72.6,63.4,29.80,N/A,-737280,0.0,0.0,73,0.00,,,0.01,Wunderground v.1.12,2013-09-22 16:04:00,
2013-09-22 12:09:00,73.5,63.5,29.80,N/A,-737280,0.0,0.0,71,0.00,,,0.01,Wunderground v.1.12,2013-09-22 16:09:00,
2013-09-22 12:14:00,74.0,62.8,29.80,N/A,-737280,0.0,0.0,68,0.00,,,0.01,Wunderground v.1.12,2013-09-22 16:14:00,
2013-09-22 12:19:00,74.7,63.4,29.80,N/A,-737280,0.0,0.0,68,0.00,,,0.01,Wunderground v.1.12,2013-09-22 16:19:00,
2013-09-22 12:24:00,75.3,63.6,29.80,N/A,-737280,0.0,0.0,67,0.00,,,0.01,Wunderground v.1.12,2013-09-22 16:24:00,
2013-09-22 12:29:00,75.9,63.3,29.80,N/A,-737280,0.0,0.0,65,0.00,,,0.01,Wunderground v.1.12,2013-09-22 16:29:00,
2013-09-22 12:34:00,76.1,62.6,29.80,N/A,-737280,0.0,0.0,63,0.00,,,0.01,Wunderground v.1.12,2013-09-22 16:34:00,
2013-09-22 12:39:00,76.1,62.1,29.80,N/A,-737280,0.0,0.0,62,0.00,,,0.01,Wunderground v.1.12,2013-09-22 16:39:00,
2013-09-22 12:44:00,76.1,63.0,29.80,N/A,-737280,0.0,0.0,64,0.00,,,0.01,Wunderground v.1.12,2013-09-22 16:44:00,
2013-09-22 12:49:00,76.0,62.9,29.80,N/A,-737280,0.0,0.0,64,0.00,,,0.01,Wunderground v.1.12,2013-09-22 16:49:00,
2013-09-22 12:54:00,75.9,63.3,29.80,N/A,-737280,0.0,0.0,65,0.00,,,0.01,Wunderground v.1.12,2013-09-22 16:54:00,
2013-09-22 12:59:00,76.0,63.4,29.80,N/A,-737280,0.0,0.0,65,0.00,,,0.01,Wunderground v.1.12,2013-09-22 16:59:00,
2013-09-22 13:04:00,76.4,62.4,29.80,N/A,-737280,0.0,0.0,62,0.00,,,0.01,Wunderground v.1.12,2013-09-22 17:04:00,
2013-09-22 13:09:00,76.7,62.2,29.80,N/A,-737280,0.0,0.0,61,0.00,,,0.01,Wunderground v.1.12,2013-09-22 17:09:00,
2013-09-22 13:14:00,77.1,62.6,29.80,N/A,-737280,0.0,0.0,61,0.00,,,0.01,Wunderground v.1.12,2013-09-22 17:14:00,
2013-09-22 13:19:00,78.0,64.8,29.80,N/A,-737280,0.0,0.0,64,0.00,,,0.01,Wunderground v.1.12,2013-09-22 17:19:00,
2013-09-22 13:24:00,78.4,62.9,29.80,N/A,-737280,0.0,0.0,59,0.00,,,0.01,Wunderground v.1.12,2013-09-22 17:24:00,
2013-09-22 13:29:00,78.9,64.8,29.80,N/A,-737280,0.0,0.0,62,0.00,,,0.01,Wunderground v.1.12,2013-09-22 17:29:00,
2013-09-22 13:34:00,79.6,65.4,29.80,N/A,-737280,0.0,0.0,62,0.00,,,0.01,Wunderground v.1.12,2013-09-22 17:34:00,
2013-09-22 13:39:00,80.0,61.9,29.80,N/A,-737280,0.0,0.0,54,0.00,,,0.01,Wunderground v.1.12,2013-09-22 17:39:00,
2013-09-22 14:12:00,82.2,59.4,29.78,SSE,156,0.0,-999.0,46,0.00,,,0.01,Wunderground v.1.12,2013-09-22 18:12:00,
2013-09-22 14:50:00,80.5,60.1,29.77,WSW,238,0.0,0.0,50,0.00,,,0.01,Wunderground v.1.12,2013-09-22 18:50:00,
2013-09-22 14:59:00,79.2,59.0,29.77,West,270,0.0,0.0,50,0.00,,,0.01,Wunderground v.1.12,2013-09-22 18:59:00,
2013-09-22 15:17:00,77.7,63.2,29.77,West,269,0.0,0.0,61,0.00,,,0.01,Wunderground v.1.12,2013-09-22 19:17:00,
2013-09-22 15:30:00,77.4,61.0,29.77,West,270,0.0,0.0,57,0.00,,,0.01,Wunderground v.1.12,2013-09-22 19:30:00,
2013-09-22 15:43:00,77.0,61.1,29.77,West,270,0.0,-999.0,58,0.00,,,0.01,Wunderground v.1.12,2013-09-22 19:43:00,
2013-09-22 15:52:00,76.8,60.4,29.77,West,270,0.0,-999.0,57,0.00,,,0.01,Wunderground v.1.12,2013-09-22 19:52:00,
2013-09-22 16:04:00,76.7,60.8,29.77,West,271,0.0,-999.0,58,0.00,,,0.01,Wunderground v.1.12,2013-09-22 20:04:00,
2013-09-22 16:12:00,76.3,59.9,29.77,West,271,0.0,-999.0,57,0.00,,,0.01,Wunderground v.1.12,2013-09-22 20:12:00,
2013-09-22 16:23:00,76.1,58.2,29.77,West,264,0.0,-999.0,54,0.00,,,0.01,Wunderground v.1.12,2013-09-22 20:23:00,
2013-09-22 16:29:00,76.0,60.2,29.77,West,264,0.0,-999.0,58,0.00,,,0.01,Wunderground v.1.12,2013-09-22 20:29:00,
2013-09-22 16:34:00,75.8,60.0,29.77,West,264,0.0,-999.0,58,0.00,,,0.01,Wunderground v.1.12,2013-09-22 20:34:00,
2013-09-22 16:42:00,75.4,61.5,29.77,West,263,0.0,-999.0,62,0.00,,,0.01,Wunderground v.1.12,2013-09-22 20:42:00,
2013-09-22 16:49:00,75.5,62.5,29.77,N/A,-737280,0.0,0.0,64,0.00,,,0.01,Wunderground v.1.12,2013-09-22 20:49:00,
2013-09-22 16:53:00,74.9,61.9,29.77,West,263,0.0,-999.0,64,0.00,,,0.01,Wunderground v.1.12,2013-09-22 20:53:00,
2013-09-22 16:59:00,74.6,60.3,29.77,West,263,0.0,-999.0,61,0.00,,,0.01,Wunderground v.1.12,2013-09-22 20:59:00,
2013-09-22 17:04:00,74.4,60.5,29.77,West,263,0.0,-999.0,62,0.00,,,0.01,Wunderground v.1.12,2013-09-22 21:04:00,
2013-09-22 17:10:00,74.0,59.7,29.77,West,263,0.0,-999.0,61,0.00,,,0.01,Wunderground v.1.12,2013-09-22 21:10:00,
2013-09-22 17:15:00,74.0,58.3,29.77,West,267,0.0,-999.0,58,0.00,,,0.01,Wunderground v.1.12,2013-09-22 21:15:00,
2013-09-22 17:20:00,73.9,59.1,29.77,West,267,0.0,-999.0,60,0.00,,,0.01,Wunderground v.1.12,2013-09-22 21:20:00,
2013-09-22 17:25:00,73.9,59.6,29.78,West,269,0.0,-999.0,61,0.00,,,0.01,Wunderground v.1.12,2013-09-22 21:25:00,
2013-09-22 17:32:00,73.7,58.0,29.78,West,267,0.0,-999.0,58,0.00,,,0.01,Wunderground v.1.12,2013-09-22 21:32:00,
2013-09-22 17:37:00,73.5,57.3,29.78,West,267,0.0,-999.0,57,0.00,,,0.01,Wunderground v.1.12,2013-09-22 21:37:00,
2013-09-22 17:42:00,73.5,57.3,29.77,West,269,0.0,-999.0,57,0.00,,,0.01,Wunderground v.1.12,2013-09-22 21:42:00,
2013-09-22 17:47:00,73.5,57.3,29.77,West,269,0.0,-999.0,57,0.00,,,0.01,Wunderground v.1.12,2013-09-22 21:47:00,
2013-09-22 17:52:00,73.7,58.0,29.77,West,270,0.0,-999.0,58,0.00,,,0.01,Wunderground v.1.12,2013-09-22 21:52:00,
2013-09-22 17:57:00,73.7,58.0,29.77,SSE,158,0.0,-999.0,58,0.00,,,0.01,Wunderground v.1.12,2013-09-22 21:57:00,
2013-09-22 18:03:00,73.9,57.2,29.77,West,270,0.0,-999.0,56,0.00,,,0.01,Wunderground v.1.12,2013-09-22 22:03:00,
2013-09-22 18:08:00,73.9,57.2,29.77,SW,236,0.0,-999.0,56,0.00,,,0.01,Wunderground v.1.12,2013-09-22 22:08:00,
2013-09-22 18:13:00,74.0,58.3,29.77,WSW,239,0.0,-999.0,58,0.00,,,0.01,Wunderground v.1.12,2013-09-22 22:13:00,
2013-09-22 18:19:00,73.9,58.2,29.77,West,276,0.0,-999.0,58,0.00,,,0.01,Wunderground v.1.12,2013-09-22 22:19:00,
2013-09-22 18:24:00,73.9,57.7,29.78,West,276,0.0,-999.0,57,0.00,,,0.01,Wunderground v.1.12,2013-09-22 22:24:00,
2013-09-22 18:29:00,73.9,57.7,29.78,West,276,0.0,-999.0,57,0.00,,,0.01,Wunderground v.1.12,2013-09-22 22:29:00,
2013-09-22 18:34:00,73.9,57.7,29.78,West,277,0.0,-999.0,57,0.00,,,0.01,Wunderground v.1.12,2013-09-22 22:34:00,
2013-09-22 18:39:00,73.9,57.7,29.78,WNW,288,0.0,-999.0,57,0.00,,,0.01,Wunderground v.1.12,2013-09-22 22:39:00,
2013-09-22 18:44:00,73.7,58.0,29.78,WNW,298,0.0,-999.0,58,0.00,,,0.01,Wunderground v.1.12,2013-09-22 22:44:00,
2013-09-22 18:49:00,73.7,58.0,29.78,WNW,286,0.0,-999.0,58,0.00,,,0.01,Wunderground v.1.12,2013-09-22 22:49:00,
2013-09-22 18:54:00,73.5,57.8,29.78,West,278,0.0,-999.0,58,0.00,,,0.01,Wunderground v.1.12,2013-09-22 22:54:00,
2013-09-22 19:00:00,73.5,57.8,29.78,WNW,293,0.0,-999.0,58,0.00,,,0.01,Wunderground v.1.12,2013-09-22 23:00:00,
2013-09-22 19:05:00,73.3,57.6,29.78,WNW,293,0.0,-999.0,58,0.00,,,0.01,Wunderground v.1.12,2013-09-22 23:05:00,
2013-09-22 19:10:00,73.2,57.5,29.78,WNW,293,0.0,-999.0,58,0.00,,,0.01,Wunderground v.1.12,2013-09-22 23:10:00,
2013-09-22 19:16:00,73.0,57.3,29.78,WNW,293,0.0,-999.0,58,0.00,,,0.01,Wunderground v.1.12,2013-09-22 23:16:00,
2013-09-22 19:21:00,73.0,57.8,29.78,WNW,293,0.0,-999.0,59,0.00,,,0.01,Wunderground v.1.12,2013-09-22 23:21:00,
2013-09-22 19:26:00,72.8,59.0,29.79,WNW,293,0.0,-999.0,62,0.00,,,0.01,Wunderground v.1.12,2013-09-22 23:26:00,
2013-09-22 19:31:00,72.5,59.6,29.79,WNW,293,0.0,-999.0,64,0.00,,,0.01,Wunderground v.1.12,2013-09-22 23:31:00,
2013-09-22 19:36:00,72.1,59.7,29.79,WNW,293,0.0,-999.0,65,0.00,,,0.01,Wunderground v.1.12,2013-09-22 23:36:00,
2013-09-22 19:41:00,71.8,59.8,29.79,WNW,293,0.0,-999.0,66,0.00,,,0.01,Wunderground v.1.12,2013-09-22 23:41:00,
2013-09-22 19:46:00,71.3,59.4,29.79,WNW,293,0.0,-999.0,66,0.00,,,0.01,Wunderground v.1.12,2013-09-22 23:46:00,
2013-09-22 19:51:00,70.8,59.7,29.79,WNW,293,0.0,-999.0,68,0.00,,,0.01,Wunderground v.1.12,2013-09-22 23:51:00,
2013-09-22 19:57:00,70.3,59.6,29.80,WNW,293,0.0,-999.0,69,0.00,,,0.01,Wunderground v.1.12,2013-09-22 23:57:00,
2013-09-22 20:02:00,69.9,59.7,29.80,WNW,293,0.0,-999.0,70,0.00,,,0.01,Wunderground v.1.12,2013-09-23 00:02:00,
2013-09-22 20:07:00,69.4,59.6,29.80,WNW,293,0.0,-999.0,71,0.00,,,0.01,Wunderground v.1.12,2013-09-23 00:07:00,
2013-09-22 20:12:00,68.9,59.5,29.80,WNW,293,0.0,-999.0,72,0.00,,,0.01,Wunderground v.1.12,2013-09-23 00:12:00,
2013-09-22 20:17:00,68.6,59.6,29.80,WNW,293,0.0,-999.0,73,0.00,,,0.01,Wunderground v.1.12,2013-09-23 00:17:00,
2013-09-22 20:22:00,68.3,59.3,29.80,WNW,293,0.0,-999.0,73,0.00,,,0.01,Wunderground v.1.12,2013-09-23 00:22:00,
2013-09-22 20:27:00,68.1,59.1,29.81,WNW,293,0.0,-999.0,73,0.00,,,0.01,Wunderground v.1.12,2013-09-23 00:27:00,
2013-09-22 20:32:00,67.8,59.2,29.81,WNW,293,0.0,-999.0,74,0.00,,,0.01,Wunderground v.1.12,2013-09-23 00:32:00,
2013-09-22 20:37:00,67.4,58.8,29.81,WNW,293,0.0,-999.0,74,0.00,,,0.01,Wunderground v.1.12,2013-09-23 00:37:00,
2013-09-22 20:42:00,67.1,58.9,29.82,WNW,293,0.0,-999.0,75,0.00,,,0.01,Wunderground v.1.12,2013-09-23 00:42:00,
2013-09-22 20:47:00,66.8,58.6,29.82,WNW,293,0.0,-999.0,75,0.00,,,0.01,Wunderground v.1.12,2013-09-23 00:47:00,
2013-09-22 20:53:00,66.4,58.2,29.82,WNW,293,0.0,-999.0,75,0.00,,,0.01,Wunderground v.1.12,2013-09-23 00:53:00,
2013-09-22 20:58:00,66.1,58.3,29.82,WNW,293,0.0,-999.0,76,0.00,,,0.01,Wunderground v.1.12,2013-09-23 00:58:00,
2013-09-22 21:04:00,66.0,58.6,29.82,WNW,293,0.0,-999.0,77,0.00,,,0.01,Wunderground v.1.12,2013-09-23 01:04:00,
2013-09-22 21:09:00,65.6,58.2,29.83,WNW,293,0.0,-999.0,77,0.00,,,0.01,Wunderground v.1.12,2013-09-23 01:09:00,
2013-09-22 21:14:00,65.3,57.9,29.83,WNW,293,0.0,-999.0,77,0.00,,,0.01,Wunderground v.1.12,2013-09-23 01:14:00,
2013-09-22 21:19:00,65.2,57.8,29.83,WNW,293,0.0,-999.0,77,0.00,,,0.01,Wunderground v.1.12,2013-09-23 01:19:00,
2013-09-22 21:24:00,64.8,57.8,29.83,WNW,293,0.0,-999.0,78,0.00,,,0.01,Wunderground v.1.12,2013-09-23 01:24:00,
2013-09-22 21:29:00,64.7,57.7,29.83,WNW,293,0.0,-999.0,78,0.00,,,0.01,Wunderground v.1.12,2013-09-23 01:29:00,
2013-09-22 21:34:00,64.5,57.8,29.83,WNW,293,0.0,-999.0,79,0.00,,,0.01,Wunderground v.1.12,2013-09-23 01:34:00,
2013-09-22 21:39:00,64.2,57.5,29.83,WNW,293,0.0,-999.0,79,0.00,,,0.01,Wunderground v.1.12,2013-09-23 01:39:00,
2013-09-22 21:44:00,64.0,57.4,29.83,WNW,293,0.0,-999.0,79,0.00,,,0.01,Wunderground v.1.12,2013-09-23 01:44:00,
2013-09-22 21:49:00,63.9,57.6,29.83,WNW,293,0.0,-999.0,80,0.00,,,0.01,Wunderground v.1.12,2013-09-23 01:49:00,
2013-09-22 21:55:00,63.5,57.2,29.83,WNW,293,0.0,-999.0,80,0.00,,,0.01,Wunderground v.1.12,2013-09-23 01:55:00,
2013-09-22 22:00:00,63.4,57.1,29.83,WNW,293,0.0,-999.0,80,0.00,,,0.01,Wunderground v.1.12,2013-09-23 02:00:00,
2013-09-22 22:05:00,63.2,56.9,29.83,WNW,293,0.0,-999.0,80,0.00,,,0.01,Wunderground v.1.12,2013-09-23 02:05:00,
2013-09-22 22:10:00,63.1,57.2,29.83,WNW,293,0.0,-999.0,81,0.00,,,0.01,Wunderground v.1.12,2013-09-23 02:10:00,
2013-09-22 22:15:00,62.7,56.8,29.83,WNW,293,0.0,-999.0,81,0.00,,,0.01,Wunderground v.1.12,2013-09-23 02:15:00,
2013-09-22 22:20:00,62.6,56.7,29.83,WNW,293,0.0,-999.0,81,0.00,,,0.01,Wunderground v.1.12,2013-09-23 02:20:00,
2013-09-22 22:25:00,62.4,56.5,29.83,WNW,293,0.0,-999.0,81,0.00,,,0.01,Wunderground v.1.12,2013-09-23 02:25:00,
2013-09-22 22:30:00,62.4,56.5,29.83,WNW,293,0.0,-999.0,81,0.00,,,0.01,Wunderground v.1.12,2013-09-23 02:30:00,
2013-09-22 22:35:00,62.1,56.2,29.83,WNW,293,0.0,-999.0,81,0.00,,,0.01,Wunderground v.1.12,2013-09-23 02:35:00,
2013-09-22 22:40:00,62.1,56.5,29.84,WNW,293,0.0,-999.0,82,0.00,,,0.01,Wunderground v.1.12,2013-09-23 02:40:00,
2013-09-22 22:45:00,62.0,56.4,29.84,WNW,293,0.0,-999.0,82,0.00,,,0.01,Wunderground v.1.12,2013-09-23 02:45:00,
2013-09-22 22:50:00,61.8,56.2,29.84,WNW,293,0.0,-999.0,82,0.00,,,0.01,Wunderground v.1.12,2013-09-23 02:50:00,
2013-09-22 22:55:00,61.6,56.4,29.84,WNW,293,0.0,-999.0,83,0.00,,,0.01,Wunderground v.1.12,2013-09-23 02:55:00,
2013-09-22 23:00:00,61.5,56.3,29.84,WNW,293,0.0,-999.0,83,0.00,,,0.01,Wunderground v.1.12,2013-09-23 03:00:00,
2013-09-22 23:06:00,61.3,56.1,29.84,WNW,293,0.0,-999.0,83,0.00,,,0.01,Wunderground v.1.12,2013-09-23 03:06:00,
2013-09-22 23:11:00,61.2,56.3,29.84,WNW,293,0.0,-999.0,84,0.00,,,0.01,Wunderground v.1.12,2013-09-23 03:11:00,
2013-09-22 23:16:00,61.2,56.3,29.84,WNW,293,0.0,-999.0,84,0.00,,,0.01,Wunderground v.1.12,2013-09-23 03:16:00,
2013-09-22 23:21:00,61.0,56.1,29.84,WNW,293,0.0,-999.0,84,0.00,,,0.01,Wunderground v.1.12,2013-09-23 03:21:00,
2013-09-22 23:26:00,60.9,56.0,29.84,WNW,293,0.0,-999.0,84,0.00,,,0.01,Wunderground v.1.12,2013-09-23 03:26:00,
2013-09-22 23:31:00,60.7,56.2,29.84,WNW,293,0.0,-999.0,85,0.00,,,0.01,Wunderground v.1.12,2013-09-23 03:31:00,
2013-09-22 23:36:00,60.7,56.2,29.84,WNW,293,0.0,-999.0,85,0.00,,,0.01,Wunderground v.1.12,2013-09-23 03:36:00,
2013-09-22 23:41:00,60.5,56.3,29.84,WNW,293,0.0,-999.0,86,0.00,,,0.01,Wunderground v.1.12,2013-09-23 03:41:00,
2013-09-22 23:46:00,60.4,55.9,29.84,WNW,293,0.0,-999.0,85,0.00,,,0.01,Wunderground v.1.12,2013-09-23 03:46:00,
2013-09-22 23:51:00,60.4,56.5,29.84,WNW,293,0.0,-999.0,87,0.00,,,0.01,Wunderground v.1.12,2013-09-23 03:51:00,
2013-09-22 23:56:00,60.2,56.3,29.85,WNW,293,0.0,-999.0,87,0.00,,,0.00,Wunderground v.1.12,2013-09-23 03:56:00,